sensor_id;sensor_type;location;lat;lon;timestamp;temperature;humidity
32173;DHT22;18679;45.190;5.722;2022-09-03T00:00:55;23.10;64.00
32173;DHT22;18679;45.190;5.722;2022-09-03T00:04:02;23.00;63.90
32173;DHT22;18679;45.190;5.722;2022-09-03T00:07:14;23.10;63.80
32173;DHT22;18679;45.190;5.722;2022-09-03T00:13:43;23.10;63.60
32173;DHT22;18679;45.190;5.722;2022-09-03T00:16:54;23.10;63.50
32173;DHT22;18679;45.190;5.722;2022-09-03T00:20:05;23.10;64.20
32173;DHT22;18679;45.190;5.722;2022-09-03T00:23:11;23.10;63.30
32173;DHT22;18679;45.190;5.722;2022-09-03T00:26:42;23.10;63.30
32173;DHT22;18679;45.190;5.722;2022-09-03T00:33:02;23.10;63.30
32173;DHT22;18679;45.190;5.722;2022-09-03T00:36:17;23.10;63.50
32173;DHT22;18679;45.190;5.722;2022-09-03T00:39:22;23.00;63.70
32173;DHT22;18679;45.190;5.722;2022-09-03T00:46:05;22.90;64.20
32173;DHT22;18679;45.190;5.722;2022-09-03T00:49:17;22.80;64.30
32173;DHT22;18679;45.190;5.722;2022-09-03T00:52:42;22.80;64.50
32173;DHT22;18679;45.190;5.722;2022-09-03T00:55:56;22.80;65.50
32173;DHT22;18679;45.190;5.722;2022-09-03T01:02:44;22.80;64.80
32173;DHT22;18679;45.190;5.722;2022-09-03T01:22:36;23.00;64.30
32173;DHT22;18679;45.190;5.722;2022-09-03T01:26:06;23.00;64.30
32173;DHT22;18679;45.190;5.722;2022-09-03T01:32:42;23.10;64.20
32173;DHT22;18679;45.190;5.722;2022-09-03T01:39:05;23.10;64.10
32173;DHT22;18679;45.190;5.722;2022-09-03T01:52:55;22.90;64.30
32173;DHT22;18679;45.190;5.722;2022-09-03T01:59:22;22.90;64.70
32173;DHT22;18679;45.190;5.722;2022-09-03T02:02:26;22.80;64.60
32173;DHT22;18679;45.190;5.722;2022-09-03T02:05:27;22.80;64.70
32173;DHT22;18679;45.190;5.722;2022-09-03T02:08:29;22.80;64.70
32173;DHT22;18679;45.190;5.722;2022-09-03T02:11:31;22.80;64.80
32173;DHT22;18679;45.190;5.722;2022-09-03T02:14:32;22.80;64.70
32173;DHT22;18679;45.190;5.722;2022-09-03T02:17:34;22.80;64.50
32173;DHT22;18679;45.190;5.722;2022-09-03T02:20:36;22.80;64.50
32173;DHT22;18679;45.190;5.722;2022-09-03T02:23:39;22.80;64.40
32173;DHT22;18679;45.190;5.722;2022-09-03T02:26:40;22.80;64.60
32173;DHT22;18679;45.190;5.722;2022-09-03T02:29:41;22.80;64.60
32173;DHT22;18679;45.190;5.722;2022-09-03T02:32:42;22.80;65.60
32173;DHT22;18679;45.190;5.722;2022-09-03T02:35:43;22.70;64.80
32173;DHT22;18679;45.190;5.722;2022-09-03T02:38:45;22.80;64.80
32173;DHT22;18679;45.190;5.722;2022-09-03T02:41:53;22.80;64.90
32173;DHT22;18679;45.190;5.722;2022-09-03T02:44:59;22.70;65.00
32173;DHT22;18679;45.190;5.722;2022-09-03T02:48:01;22.80;64.90
32173;DHT22;18679;45.190;5.722;2022-09-03T02:51:03;22.80;64.70
32173;DHT22;18679;45.190;5.722;2022-09-03T02:54:05;22.90;64.70
32173;DHT22;18679;45.190;5.722;2022-09-03T02:57:10;22.90;64.60
32173;DHT22;18679;45.190;5.722;2022-09-03T03:00:11;22.90;64.60
32173;DHT22;18679;45.190;5.722;2022-09-03T03:03:12;22.90;64.70
32173;DHT22;18679;45.190;5.722;2022-09-03T03:06:13;22.90;64.60
32173;DHT22;18679;45.190;5.722;2022-09-03T03:09:14;22.90;64.60
32173;DHT22;18679;45.190;5.722;2022-09-03T03:12:15;22.90;64.80
32173;DHT22;18679;45.190;5.722;2022-09-03T03:15:16;22.90;64.80
32173;DHT22;18679;45.190;5.722;2022-09-03T03:18:17;22.80;64.80
32173;DHT22;18679;45.190;5.722;2022-09-03T03:21:20;22.80;65.00
32173;DHT22;18679;45.190;5.722;2022-09-03T03:24:20;22.70;65.10
32173;DHT22;18679;45.190;5.722;2022-09-03T03:27:22;22.70;65.40
32173;DHT22;18679;45.190;5.722;2022-09-03T03:30:23;22.60;65.50
32173;DHT22;18679;45.190;5.722;2022-09-03T03:33:24;22.60;65.70
32173;DHT22;18679;45.190;5.722;2022-09-03T03:36:28;22.60;65.70
32173;DHT22;18679;45.190;5.722;2022-09-03T03:39:30;22.60;65.70
32173;DHT22;18679;45.190;5.722;2022-09-03T03:42:32;22.60;65.70
32173;DHT22;18679;45.190;5.722;2022-09-03T03:45:34;22.60;65.90
32173;DHT22;18679;45.190;5.722;2022-09-03T03:48:35;22.60;66.10
32173;DHT22;18679;45.190;5.722;2022-09-03T03:51:36;22.60;66.30
32173;DHT22;18679;45.190;5.722;2022-09-03T03:54:38;22.50;66.30
32173;DHT22;18679;45.190;5.722;2022-09-03T03:57:39;22.50;66.30
32173;DHT22;18679;45.190;5.722;2022-09-03T04:00:40;22.40;66.30
32173;DHT22;18679;45.190;5.722;2022-09-03T04:03:41;22.40;66.40
32173;DHT22;18679;45.190;5.722;2022-09-03T04:06:42;22.40;66.40
32173;DHT22;18679;45.190;5.722;2022-09-03T04:09:45;22.40;66.50
32173;DHT22;18679;45.190;5.722;2022-09-03T04:12:46;22.40;66.40
32173;DHT22;18679;45.190;5.722;2022-09-03T04:15:47;22.50;66.40
32173;DHT22;18679;45.190;5.722;2022-09-03T04:18:49;22.50;66.40
32173;DHT22;18679;45.190;5.722;2022-09-03T04:21:50;22.50;66.40
32173;DHT22;18679;45.190;5.722;2022-09-03T04:24:50;22.50;66.50
32173;DHT22;18679;45.190;5.722;2022-09-03T04:27:52;22.50;66.60
32173;DHT22;18679;45.190;5.722;2022-09-03T04:30:53;22.50;66.70
32173;DHT22;18679;45.190;5.722;2022-09-03T04:33:54;22.50;66.80
32173;DHT22;18679;45.190;5.722;2022-09-03T04:36:55;22.50;66.80
32173;DHT22;18679;45.190;5.722;2022-09-03T04:39:58;22.50;66.80
32173;DHT22;18679;45.190;5.722;2022-09-03T04:42:59;22.50;66.80
32173;DHT22;18679;45.190;5.722;2022-09-03T04:46:02;22.50;66.80
32173;DHT22;18679;45.190;5.722;2022-09-03T04:49:04;22.50;66.80
32173;DHT22;18679;45.190;5.722;2022-09-03T04:52:07;22.50;66.90
32173;DHT22;18679;45.190;5.722;2022-09-03T04:55:09;22.40;67.10
32173;DHT22;18679;45.190;5.722;2022-09-03T04:58:11;22.40;67.30
32173;DHT22;18679;45.190;5.722;2022-09-03T05:01:17;22.30;67.60
32173;DHT22;18679;45.190;5.722;2022-09-03T05:04:18;22.20;67.70
32173;DHT22;18679;45.190;5.722;2022-09-03T05:07:19;22.30;67.90
32173;DHT22;18679;45.190;5.722;2022-09-03T05:10:20;22.20;67.80
32173;DHT22;18679;45.190;5.722;2022-09-03T05:13:22;22.30;67.90
32173;DHT22;18679;45.190;5.722;2022-09-03T05:16:23;22.30;67.90
32173;DHT22;18679;45.190;5.722;2022-09-03T05:19:25;22.30;67.60
32173;DHT22;18679;45.190;5.722;2022-09-03T05:22:26;22.30;67.60
32173;DHT22;18679;45.190;5.722;2022-09-03T05:25:27;22.40;67.50
32173;DHT22;18679;45.190;5.722;2022-09-03T05:28:29;22.30;67.30
32173;DHT22;18679;45.190;5.722;2022-09-03T05:31:30;22.30;67.30
32173;DHT22;18679;45.190;5.722;2022-09-03T05:34:31;22.30;67.30
32173;DHT22;18679;45.190;5.722;2022-09-03T05:37:39;22.30;68.10
32173;DHT22;18679;45.190;5.722;2022-09-03T05:40:40;22.30;67.10
32173;DHT22;18679;45.190;5.722;2022-09-03T05:43:41;22.40;66.90
32173;DHT22;18679;45.190;5.722;2022-09-03T05:46:42;22.40;66.80
32173;DHT22;18679;45.190;5.722;2022-09-03T05:49:43;22.40;66.50
32173;DHT22;18679;45.190;5.722;2022-09-03T05:52:44;22.50;66.50
32173;DHT22;18679;45.190;5.722;2022-09-03T05:55:54;22.50;66.50
32173;DHT22;18679;45.190;5.722;2022-09-03T05:58:57;22.50;66.40
32173;DHT22;18679;45.190;5.722;2022-09-03T06:02:01;22.50;66.30
32173;DHT22;18679;45.190;5.722;2022-09-03T06:05:02;22.50;66.30
32173;DHT22;18679;45.190;5.722;2022-09-03T06:08:03;22.60;66.30
32173;DHT22;18679;45.190;5.722;2022-09-03T06:11:04;22.60;66.20
32173;DHT22;18679;45.190;5.722;2022-09-03T06:14:08;22.60;66.30
32173;DHT22;18679;45.190;5.722;2022-09-03T06:17:09;22.60;66.20
32173;DHT22;18679;45.190;5.722;2022-09-03T06:20:12;22.60;66.40
32173;DHT22;18679;45.190;5.722;2022-09-03T06:23:13;22.60;66.40
32173;DHT22;18679;45.190;5.722;2022-09-03T06:26:13;22.50;66.40
32173;DHT22;18679;45.190;5.722;2022-09-03T06:29:15;22.50;66.60
32173;DHT22;18679;45.190;5.722;2022-09-03T06:32:16;22.50;66.60
32173;DHT22;18679;45.190;5.722;2022-09-03T06:35:19;22.50;66.80
32173;DHT22;18679;45.190;5.722;2022-09-03T06:38:21;22.50;67.00
32173;DHT22;18679;45.190;5.722;2022-09-03T06:41:28;22.50;67.00
32173;DHT22;18679;45.190;5.722;2022-09-03T06:44:31;22.50;67.00
32173;DHT22;18679;45.190;5.722;2022-09-03T06:47:32;22.60;66.90
32173;DHT22;18679;45.190;5.722;2022-09-03T06:50:33;22.70;66.90
32173;DHT22;18679;45.190;5.722;2022-09-03T06:53:36;22.80;66.60
32173;DHT22;18679;45.190;5.722;2022-09-03T06:56:40;22.90;66.40
32173;DHT22;18679;45.190;5.722;2022-09-03T06:59:41;23.00;66.10
32173;DHT22;18679;45.190;5.722;2022-09-03T07:02:43;23.10;65.60
32173;DHT22;18679;45.190;5.722;2022-09-03T07:05:45;23.20;65.30
32173;DHT22;18679;45.190;5.722;2022-09-03T07:08:46;23.30;65.00
32173;DHT22;18679;45.190;5.722;2022-09-03T07:11:47;23.30;64.50
32173;DHT22;18679;45.190;5.722;2022-09-03T07:14:48;23.40;64.40
32173;DHT22;18679;45.190;5.722;2022-09-03T07:17:51;23.50;64.00
32173;DHT22;18679;45.190;5.722;2022-09-03T07:20:57;23.50;63.00
32173;DHT22;18679;45.190;5.722;2022-09-03T07:23:59;23.50;62.80
32173;DHT22;18679;45.190;5.722;2022-09-03T07:27:00;23.50;62.80
32173;DHT22;18679;45.190;5.722;2022-09-03T07:30:01;23.50;62.60
32173;DHT22;18679;45.190;5.722;2022-09-03T07:33:03;23.60;62.50
32173;DHT22;18679;45.190;5.722;2022-09-03T07:36:07;23.70;62.20
32173;DHT22;18679;45.190;5.722;2022-09-03T07:39:09;23.80;61.40
32173;DHT22;18679;45.190;5.722;2022-09-03T07:42:13;23.80;61.20
32173;DHT22;18679;45.190;5.722;2022-09-03T07:45:14;23.90;61.40
32173;DHT22;18679;45.190;5.722;2022-09-03T07:48:15;24.00;60.70
32173;DHT22;18679;45.190;5.722;2022-09-03T07:51:18;24.10;60.10
32173;DHT22;18679;45.190;5.722;2022-09-03T07:54:20;24.10;60.10
32173;DHT22;18679;45.190;5.722;2022-09-03T07:57:21;24.20;60.20
32173;DHT22;18679;45.190;5.722;2022-09-03T08:00:22;24.20;59.80
32173;DHT22;18679;45.190;5.722;2022-09-03T08:03:23;24.10;59.90
32173;DHT22;18679;45.190;5.722;2022-09-03T08:06:27;24.10;59.90
32173;DHT22;18679;45.190;5.722;2022-09-03T08:09:29;24.10;59.90
32173;DHT22;18679;45.190;5.722;2022-09-03T08:12:32;24.10;60.00
32173;DHT22;18679;45.190;5.722;2022-09-03T08:15:33;24.20;60.00
32173;DHT22;18679;45.190;5.722;2022-09-03T08:18:35;24.30;59.80
32173;DHT22;18679;45.190;5.722;2022-09-03T08:21:40;24.40;59.60
32173;DHT22;18679;45.190;5.722;2022-09-03T08:24:43;24.50;59.60
32173;DHT22;18679;45.190;5.722;2022-09-03T08:27:44;24.70;59.30
32173;DHT22;18679;45.190;5.722;2022-09-03T08:30:45;24.80;59.00
32173;DHT22;18679;45.190;5.722;2022-09-03T08:33:50;24.90;58.60
32173;DHT22;18679;45.190;5.722;2022-09-03T08:36:51;25.00;58.10
32173;DHT22;18679;45.190;5.722;2022-09-03T08:39:54;25.10;57.90
32173;DHT22;18679;45.190;5.722;2022-09-03T08:43:16;25.20;57.60
32173;DHT22;18679;45.190;5.722;2022-09-03T08:46:20;25.40;57.10
32173;DHT22;18679;45.190;5.722;2022-09-03T08:49:45;25.50;56.60
32173;DHT22;18679;45.190;5.722;2022-09-03T08:53:02;25.60;56.60
32173;DHT22;18679;45.190;5.722;2022-09-03T08:56:09;25.70;56.20
32173;DHT22;18679;45.190;5.722;2022-09-03T08:59:12;25.80;56.00
32173;DHT22;18679;45.190;5.722;2022-09-03T09:13:08;26.50;54.50
32173;DHT22;18679;45.190;5.722;2022-09-03T09:26:07;27.30;52.90
32173;DHT22;18679;45.190;5.722;2022-09-03T09:29:12;27.40;52.40
32173;DHT22;18679;45.190;5.722;2022-09-03T09:32:17;27.50;51.90
32173;DHT22;18679;45.190;5.722;2022-09-03T09:35:18;27.60;51.70
32173;DHT22;18679;45.190;5.722;2022-09-03T09:38:34;27.60;51.10
32173;DHT22;18679;45.190;5.722;2022-09-03T09:41:38;27.70;50.70
32173;DHT22;18679;45.190;5.722;2022-09-03T09:44:40;27.80;50.30
32173;DHT22;18679;45.190;5.722;2022-09-03T09:47:42;27.90;50.10
32173;DHT22;18679;45.190;5.722;2022-09-03T09:50:43;27.90;49.80
32173;DHT22;18679;45.190;5.722;2022-09-03T09:53:45;28.00;49.50
32173;DHT22;18679;45.190;5.722;2022-09-03T09:56:57;28.10;49.20
32173;DHT22;18679;45.190;5.722;2022-09-03T10:00:11;28.20;48.90
32173;DHT22;18679;45.190;5.722;2022-09-03T10:03:19;28.40;48.60
32173;DHT22;18679;45.190;5.722;2022-09-03T10:06:25;28.60;48.20
32173;DHT22;18679;45.190;5.722;2022-09-03T10:09:56;28.80;47.90
32173;DHT22;18679;45.190;5.722;2022-09-03T10:13:05;29.00;47.40
32173;DHT22;18679;45.190;5.722;2022-09-03T10:16:21;29.00;46.70
32173;DHT22;18679;45.190;5.722;2022-09-03T10:19:35;28.90;46.50
32173;DHT22;18679;45.190;5.722;2022-09-03T10:22:44;28.90;46.40
32173;DHT22;18679;45.190;5.722;2022-09-03T10:26:03;28.90;46.50
32173;DHT22;18679;45.190;5.722;2022-09-03T10:29:07;28.90;46.40
32173;DHT22;18679;45.190;5.722;2022-09-03T10:35:35;29.10;45.80
32173;DHT22;18679;45.190;5.722;2022-09-03T10:38:39;29.20;45.30
32173;DHT22;18679;45.190;5.722;2022-09-03T10:42:07;29.40;44.80
32173;DHT22;18679;45.190;5.722;2022-09-03T10:45:33;29.40;44.50
32173;DHT22;18679;45.190;5.722;2022-09-03T10:55:40;29.70;43.50
32173;DHT22;18679;45.190;5.722;2022-09-03T10:59:09;29.70;43.30
32173;DHT22;18679;45.190;5.722;2022-09-03T11:02:33;29.80;43.00
32173;DHT22;18679;45.190;5.722;2022-09-03T11:06:06;29.90;42.90
32173;DHT22;18679;45.190;5.722;2022-09-03T11:09:38;29.90;42.70
32173;DHT22;18679;45.190;5.722;2022-09-03T11:12:44;29.70;42.80
32173;DHT22;18679;45.190;5.722;2022-09-03T11:15:58;29.60;43.00
32173;DHT22;18679;45.190;5.722;2022-09-03T11:19:06;29.70;43.10
32173;DHT22;18679;45.190;5.722;2022-09-03T11:22:08;29.70;42.80
32173;DHT22;18679;45.190;5.722;2022-09-03T11:25:12;29.70;43.00
32173;DHT22;18679;45.190;5.722;2022-09-03T11:34:48;29.70;43.10
32173;DHT22;18679;45.190;5.722;2022-09-03T11:38:04;29.70;43.10
32173;DHT22;18679;45.190;5.722;2022-09-03T11:41:26;29.90;43.20
32173;DHT22;18679;45.190;5.722;2022-09-03T11:44:37;30.20;42.70
32173;DHT22;18679;45.190;5.722;2022-09-03T11:47:44;30.50;42.40
32173;DHT22;18679;45.190;5.722;2022-09-03T11:50:53;30.80;42.00
32173;DHT22;18679;45.190;5.722;2022-09-03T11:54:03;31.00;41.20
32173;DHT22;18679;45.190;5.722;2022-09-03T11:57:15;30.90;40.70
32173;DHT22;18679;45.190;5.722;2022-09-03T12:00:22;30.90;40.90
32173;DHT22;18679;45.190;5.722;2022-09-03T12:03:28;30.80;40.90
32173;DHT22;18679;45.190;5.722;2022-09-03T12:06:43;30.60;40.70
32173;DHT22;18679;45.190;5.722;2022-09-03T12:09:57;30.40;41.20
32173;DHT22;18679;45.190;5.722;2022-09-03T12:13:42;30.30;40.80
32173;DHT22;18679;45.190;5.722;2022-09-03T12:16:52;30.00;41.10
32173;DHT22;18679;45.190;5.722;2022-09-03T12:19:57;29.80;41.60
32173;DHT22;18679;45.190;5.722;2022-09-03T12:22:58;29.80;41.80
32173;DHT22;18679;45.190;5.722;2022-09-03T12:26:08;29.80;41.70
32173;DHT22;18679;45.190;5.722;2022-09-03T12:29:21;29.90;41.80
32173;DHT22;18679;45.190;5.722;2022-09-03T12:32:33;29.90;41.70
32173;DHT22;18679;45.190;5.722;2022-09-03T12:35:37;30.00;41.50
32173;DHT22;18679;45.190;5.722;2022-09-03T12:38:39;30.10;41.30
32173;DHT22;18679;45.190;5.722;2022-09-03T12:42:05;30.20;41.10
32173;DHT22;18679;45.190;5.722;2022-09-03T12:45:07;30.20;41.20
32173;DHT22;18679;45.190;5.722;2022-09-03T12:48:13;31.30;39.90
32173;DHT22;18679;45.190;5.722;2022-09-03T12:51:17;32.50;38.00
32173;DHT22;18679;45.190;5.722;2022-09-03T12:54:18;33.40;36.60
32173;DHT22;18679;45.190;5.722;2022-09-03T12:57:24;34.30;35.10
32173;DHT22;18679;45.190;5.722;2022-09-03T13:00:28;35.10;34.00
32173;DHT22;18679;45.190;5.722;2022-09-03T13:03:36;35.70;32.90
32173;DHT22;18679;45.190;5.722;2022-09-03T13:06:59;35.80;32.20
32173;DHT22;18679;45.190;5.722;2022-09-03T13:10:22;36.00;31.90
32173;DHT22;18679;45.190;5.722;2022-09-03T13:13:26;36.00;31.50
32173;DHT22;18679;45.190;5.722;2022-09-03T13:41:45;35.60;31.30
32173;DHT22;18679;45.190;5.722;2022-09-03T13:48:00;34.30;33.10
32173;DHT22;18679;45.190;5.722;2022-09-03T13:51:27;33.70;33.90
32173;DHT22;18679;45.190;5.722;2022-09-03T13:54:41;33.10;34.60
32173;DHT22;18679;45.190;5.722;2022-09-03T13:57:50;32.90;35.00
32173;DHT22;18679;45.190;5.722;2022-09-03T14:04:00;32.50;35.40
32173;DHT22;18679;45.190;5.722;2022-09-03T14:07:10;32.30;35.70
32173;DHT22;18679;45.190;5.722;2022-09-03T14:19:59;32.00;36.40
32173;DHT22;18679;45.190;5.722;2022-09-03T14:26:17;31.80;36.60
32173;DHT22;18679;45.190;5.722;2022-09-03T14:29:26;31.60;36.90
32173;DHT22;18679;45.190;5.722;2022-09-03T14:32:31;31.50;37.30
32173;DHT22;18679;45.190;5.722;2022-09-03T14:35:43;31.20;37.60
32173;DHT22;18679;45.190;5.722;2022-09-03T14:42:25;30.90;38.20
32173;DHT22;18679;45.190;5.722;2022-09-03T14:45:50;30.80;38.60
32173;DHT22;18679;45.190;5.722;2022-09-03T15:13:19;30.50;39.20
32173;DHT22;18679;45.190;5.722;2022-09-03T15:19:47;30.50;39.30
32173;DHT22;18679;45.190;5.722;2022-09-03T15:23:18;30.50;39.50
32173;DHT22;18679;45.190;5.722;2022-09-03T15:30:00;30.30;39.70
32173;DHT22;18679;45.190;5.722;2022-09-03T15:36:22;30.30;40.00
32173;DHT22;18679;45.190;5.722;2022-09-03T15:39:27;30.30;40.20
32173;DHT22;18679;45.190;5.722;2022-09-03T15:42:31;30.30;40.40
32173;DHT22;18679;45.190;5.722;2022-09-03T15:45:37;30.30;40.50
32173;DHT22;18679;45.190;5.722;2022-09-03T15:48:57;30.30;40.60
32173;DHT22;18679;45.190;5.722;2022-09-03T15:55:42;30.40;40.50
32173;DHT22;18679;45.190;5.722;2022-09-03T15:59:02;30.60;40.40
32173;DHT22;18679;45.190;5.722;2022-09-03T16:08:51;32.10;38.50
32173;DHT22;18679;45.190;5.722;2022-09-03T16:18:32;35.30;33.20
32173;DHT22;18679;45.190;5.722;2022-09-03T16:24:47;36.90;30.60
32173;DHT22;18679;45.190;5.722;2022-09-03T16:40:47;35.20;31.80
32173;DHT22;18679;45.190;5.722;2022-09-03T16:50:55;32.50;35.60
32173;DHT22;18679;45.190;5.722;2022-09-03T16:57:46;31.50;37.30
32173;DHT22;18679;45.190;5.722;2022-09-03T17:08:11;30.70;38.80
32173;DHT22;18679;45.190;5.722;2022-09-03T17:24:53;30.20;39.50
32173;DHT22;18679;45.190;5.722;2022-09-03T17:38:29;29.90;40.40
32173;DHT22;18679;45.190;5.722;2022-09-03T17:42:05;29.70;40.30
32173;DHT22;18679;45.190;5.722;2022-09-03T17:52:03;29.60;40.70
32173;DHT22;18679;45.190;5.722;2022-09-03T17:58:40;29.60;41.10
32173;DHT22;18679;45.190;5.722;2022-09-03T18:02:14;29.50;41.20
32173;DHT22;18679;45.190;5.722;2022-09-03T18:05:23;29.40;41.20
32173;DHT22;18679;45.190;5.722;2022-09-03T18:08:57;29.40;41.50
32173;DHT22;18679;45.190;5.722;2022-09-03T18:12:18;29.40;41.80
32173;DHT22;18679;45.190;5.722;2022-09-03T18:15:47;29.30;42.20
32173;DHT22;18679;45.190;5.722;2022-09-03T18:18:56;29.30;42.50
32173;DHT22;18679;45.190;5.722;2022-09-03T18:22:01;29.20;42.90
32173;DHT22;18679;45.190;5.722;2022-09-03T18:25:24;29.20;43.30
32173;DHT22;18679;45.190;5.722;2022-09-03T18:28:48;29.20;43.70
32173;DHT22;18679;45.190;5.722;2022-09-03T18:32:08;29.10;43.80
32173;DHT22;18679;45.190;5.722;2022-09-03T18:35:30;29.00;43.80
32173;DHT22;18679;45.190;5.722;2022-09-03T18:38:50;29.00;43.90
32173;DHT22;18679;45.190;5.722;2022-09-03T18:42:41;28.90;43.30
32173;DHT22;18679;45.190;5.722;2022-09-03T18:46:27;28.70;41.30
32173;DHT22;18679;45.190;5.722;2022-09-03T18:50:12;28.40;41.50
32173;DHT22;18679;45.190;5.722;2022-09-03T18:57:28;27.80;43.40
32173;DHT22;18679;45.190;5.722;2022-09-03T19:01:15;27.50;44.00
32173;DHT22;18679;45.190;5.722;2022-09-03T19:04:49;27.20;44.10
32173;DHT22;18679;45.190;5.722;2022-09-03T19:16:08;26.30;46.10
32173;DHT22;18679;45.190;5.722;2022-09-03T19:23:07;25.60;48.40
32173;DHT22;18679;45.190;5.722;2022-09-03T19:26:44;25.30;48.80
32173;DHT22;18679;45.190;5.722;2022-09-03T19:38:03;24.70;50.90
32173;DHT22;18679;45.190;5.722;2022-09-03T19:41:38;24.50;51.30
32173;DHT22;18679;45.190;5.722;2022-09-03T19:55:35;24.40;52.80
32173;DHT22;18679;45.190;5.722;2022-09-03T19:58:59;24.40;53.20
32173;DHT22;18679;45.190;5.722;2022-09-03T20:02:20;24.30;53.90
32173;DHT22;18679;45.190;5.722;2022-09-03T20:05:42;24.20;54.50
32173;DHT22;18679;45.190;5.722;2022-09-03T20:09:07;24.10;55.10
32173;DHT22;18679;45.190;5.722;2022-09-03T20:12:32;24.10;55.50
32173;DHT22;18679;45.190;5.722;2022-09-03T20:23:05;24.00;55.70
32173;DHT22;18679;45.190;5.722;2022-09-03T20:30:00;23.90;55.70
32173;DHT22;18679;45.190;5.722;2022-09-03T20:36:42;23.70;55.80
32173;DHT22;18679;45.190;5.722;2022-09-03T20:47:49;23.60;56.50
32173;DHT22;18679;45.190;5.722;2022-09-03T20:51:03;23.60;56.90
32173;DHT22;18679;45.190;5.722;2022-09-03T21:01:19;23.40;57.70
32173;DHT22;18679;45.190;5.722;2022-09-03T21:04:33;23.40;58.00
32173;DHT22;18679;45.190;5.722;2022-09-03T21:11:18;23.50;58.20
32173;DHT22;18679;45.190;5.722;2022-09-03T21:21:32;23.60;58.50
32173;DHT22;18679;45.190;5.722;2022-09-03T21:24:48;23.60;58.40
32173;DHT22;18679;45.190;5.722;2022-09-03T21:28:27;23.60;58.30
32173;DHT22;18679;45.190;5.722;2022-09-03T21:31:25;23.60;58.20
32173;DHT22;18679;45.190;5.722;2022-09-03T21:38:07;23.50;58.80
32173;DHT22;18679;45.190;5.722;2022-09-03T21:41:31;23.50;58.90
32173;DHT22;18679;45.190;5.722;2022-09-03T21:44:49;23.50;59.20
32173;DHT22;18679;45.190;5.722;2022-09-03T21:47:57;23.40;59.20
32173;DHT22;18679;45.190;5.722;2022-09-03T21:51:24;23.40;59.70
32173;DHT22;18679;45.190;5.722;2022-09-03T21:54:33;23.40;59.80
32173;DHT22;18679;45.190;5.722;2022-09-03T21:57:41;23.40;60.00
32173;DHT22;18679;45.190;5.722;2022-09-03T22:00:49;23.30;60.10
32173;DHT22;18679;45.190;5.722;2022-09-03T22:03:51;23.30;60.20
32173;DHT22;18679;45.190;5.722;2022-09-03T22:19:22;23.20;61.30
32173;DHT22;18679;45.190;5.722;2022-09-03T22:26:07;23.10;61.70
32173;DHT22;18679;45.190;5.722;2022-09-03T22:32:56;23.10;61.90
32173;DHT22;18679;45.190;5.722;2022-09-03T22:36:20;23.10;61.90
32173;DHT22;18679;45.190;5.722;2022-09-03T22:39:39;23.00;62.30
32173;DHT22;18679;45.190;5.722;2022-09-03T22:49:24;22.90;63.30
32173;DHT22;18679;45.190;5.722;2022-09-03T22:52:40;22.90;63.40
32173;DHT22;18679;45.190;5.722;2022-09-03T22:56:09;22.90;63.60
32173;DHT22;18679;45.190;5.722;2022-09-03T22:59:24;22.80;63.80
32173;DHT22;18679;45.190;5.722;2022-09-03T23:02:28;22.80;63.80
32173;DHT22;18679;45.190;5.722;2022-09-03T23:05:45;22.70;63.90
32173;DHT22;18679;45.190;5.722;2022-09-03T23:08:53;22.70;64.10
32173;DHT22;18679;45.190;5.722;2022-09-03T23:11:59;22.60;64.10
32173;DHT22;18679;45.190;5.722;2022-09-03T23:15:02;22.60;64.30
32173;DHT22;18679;45.190;5.722;2022-09-03T23:18:12;22.60;64.30
32173;DHT22;18679;45.190;5.722;2022-09-03T23:21:21;22.60;64.40
32173;DHT22;18679;45.190;5.722;2022-09-03T23:24:43;22.50;64.30
32173;DHT22;18679;45.190;5.722;2022-09-03T23:27:49;22.50;64.50
32173;DHT22;18679;45.190;5.722;2022-09-03T23:30:54;22.50;64.60
32173;DHT22;18679;45.190;5.722;2022-09-03T23:34:03;22.60;64.80
32173;DHT22;18679;45.190;5.722;2022-09-03T23:43:57;22.50;64.80
32173;DHT22;18679;45.190;5.722;2022-09-03T23:47:07;22.50;64.70
32173;DHT22;18679;45.190;5.722;2022-09-03T23:53:59;22.60;64.80
32173;DHT22;18679;45.190;5.722;2022-09-03T23:57:06;22.60;64.70
